Time;durP1;ratioP1;P1;durP2;ratioP2;P2;SDS_P1;SDS_P2;PMS_P1;PMS_P2;Temp;Humidity;BMP_temperature;BMP_pressure;BME280_temperature;BME280_humidity;BME280_pressure;Samples;Min_cycle;Max_cycle;Signal;HPM_P1;HPM_P2
2021/01/21 00:01:24;;;;;;;5.70;1.98;;;;;;;5.86;58.00;97366.31;4994887;28;20045;-70
2021/01/21 00:03:49;;;;;;;6.63;2.47;;;;;;;5.86;58.74;97348.34;4995352;28;20023;-70
2021/01/21 00:06:15;;;;;;;6.60;2.72;;;;;;;5.89;58.65;97342.59;5010867;28;20037;-70
2021/01/21 00:08:40;;;;;;;7.97;2.22;;;;;;;5.93;57.97;97341.16;5007529;28;20064;-69
2021/01/21 00:11:06;;;;;;;6.63;2.30;;;;;;;6.00;57.30;97343.00;4995010;28;20093;-70
2021/01/21 00:13:32;;;;;;;3.28;1.65;;;;;;;5.92;58.20;97354.75;4995260;28;20030;-70
2021/01/21 00:15:57;;;;;;;4.55;1.77;;;;;;;5.69;58.69;97352.53;4999037;28;20030;-70
2021/01/21 00:18:23;;;;;;;5.10;1.33;;;;;;;5.68;58.91;97356.22;4996578;28;20031;-69
2021/01/21 00:20:49;;;;;;;3.22;1.67;;;;;;;5.78;58.34;97367.38;5007027;28;20038;-70
2021/01/21 00:23:14;;;;;;;3.53;1.90;;;;;;;5.72;58.89;97368.22;5014099;28;20592;-70
2021/01/21 00:25:39;;;;;;;3.03;1.23;;;;;;;5.80;58.00;97384.09;5003133;28;20030;-69
2021/01/21 00:28:05;;;;;;;2.60;1.40;;;;;;;5.77;58.08;97381.81;4994897;28;20466;-69
2021/01/21 00:30:30;;;;;;;5.13;1.77;;;;;;;5.78;57.88;97375.41;4993063;28;20030;-70
2021/01/21 00:32:55;;;;;;;6.15;2.00;;;;;;;5.82;57.95;97367.78;4995971;28;20049;-70
2021/01/21 00:35:21;;;;;;;5.15;1.65;;;;;;;5.88;57.52;97372.31;4994688;28;20108;-69
2021/01/21 00:37:46;;;;;;;5.95;1.65;;;;;;;5.76;58.04;97352.50;5010521;28;20485;-70
2021/01/21 00:40:12;;;;;;;4.78;1.73;;;;;;;5.85;58.13;97376.25;5002064;28;20416;-69
2021/01/21 00:42:37;;;;;;;4.25;1.75;;;;;;;5.73;59.13;97359.09;4999331;28;20104;-70
2021/01/21 00:45:04;;;;;;;4.28;1.58;;;;;;;5.65;59.77;97370.06;5011665;28;20077;-70
2021/01/21 00:47:29;;;;;;;3.78;1.65;;;;;;;5.41;59.89;97350.06;5009861;28;20030;-70
2021/01/21 00:49:55;;;;;;;1.73;1.20;;;;;;;5.55;59.74;97356.22;5013326;28;20036;-70
2021/01/21 00:52:20;;;;;;;1.60;1.10;;;;;;;5.51;59.66;97349.66;5001950;28;20029;-70
2021/01/21 00:54:45;;;;;;;4.38;1.10;;;;;;;5.62;58.86;97346.34;5005668;28;20113;-70
2021/01/21 00:57:10;;;;;;;4.07;1.50;;;;;;;5.62;58.69;97351.69;5010542;28;20152;-70
2021/01/21 00:59:36;;;;;;;2.22;1.30;;;;;;;5.68;58.37;97350.84;4995062;28;20022;-69
2021/01/21 01:02:02;;;;;;;2.78;1.33;;;;;;;5.69;59.25;97339.94;5005482;28;20057;-70
2021/01/21 01:04:28;;;;;;;2.78;1.40;;;;;;;5.75;58.79;97340.94;5008142;28;20026;-70
2021/01/21 01:06:53;;;;;;;3.10;1.02;;;;;;;5.81;57.94;97324.00;4999460;28;20026;-70
2021/01/21 01:09:19;;;;;;;3.00;1.20;;;;;;;5.99;57.52;97306.44;5003244;28;20052;-71
2021/01/21 01:11:44;;;;;;;2.90;1.20;;;;;;;5.97;57.61;97303.97;5004982;28;20026;-69
2021/01/21 01:14:09;;;;;;;2.72;1.20;;;;;;;6.26;56.40;97309.88;5012614;28;20026;-70
2021/01/21 01:16:35;;;;;;;2.00;1.20;;;;;;;6.52;56.27;97308.94;5001122;28;20038;-70
2021/01/21 01:19:00;;;;;;;1.67;1.23;;;;;;;6.57;55.36;97309.09;5008094;28;20022;-69
2021/01/21 01:21:25;;;;;;;2.15;1.10;;;;;;;6.58;55.74;97319.66;4993867;28;20053;-70
2021/01/21 01:23:52;;;;;;;2.47;0.95;;;;;;;6.68;54.69;97303.06;4997431;28;20030;-70
2021/01/21 01:26:19;;;;;;;2.25;1.00;;;;;;;6.67;54.48;97293.34;5007859;28;20064;-70
2021/01/21 01:28:44;;;;;;;2.58;1.10;;;;;;;6.82;54.32;97294.94;5007140;28;20459;-69
2021/01/21 01:31:10;;;;;;;2.05;1.10;;;;;;;6.87;54.34;97306.69;5008269;28;20057;-70
2021/01/21 01:33:35;;;;;;;3.42;0.85;;;;;;;6.97;54.24;97300.84;5004622;28;20030;-70
2021/01/21 01:36:00;;;;;;;1.92;1.00;;;;;;;7.02;53.62;97292.91;5008629;28;20023;-73
2021/01/21 01:38:25;;;;;;;2.33;1.05;;;;;;;7.12;53.60;97293.25;4994698;28;20022;-71
2021/01/21 01:40:52;;;;;;;1.80;0.75;;;;;;;7.08;52.92;97264.34;4994380;28;20116;-70
2021/01/21 01:43:17;;;;;;;2.15;1.00;;;;;;;7.20;53.38;97290.31;5012218;28;20499;-69
2021/01/21 01:45:43;;;;;;;1.58;0.90;;;;;;;7.09;53.82;97299.06;5012195;28;20057;-69
2021/01/21 01:48:08;;;;;;;2.00;0.95;;;;;;;6.89;54.82;97282.25;5007357;28;20113;-70
2021/01/21 01:50:33;;;;;;;1.92;1.02;;;;;;;6.89;54.40;97277.72;4992841;28;20084;-70
2021/01/21 01:52:59;;;;;;;1.88;0.98;;;;;;;6.81;54.70;97286.00;5000748;28;20507;-69
2021/01/21 01:55:24;;;;;;;2.03;1.00;;;;;;;6.73;54.65;97300.56;5012860;28;20412;-70
2021/01/21 01:57:52;;;;;;;2.53;1.10;;;;;;;6.63;56.49;97292.16;5006619;28;20084;-69
2021/01/21 02:00:19;;;;;;;5.28;1.15;;;;;;;6.54;56.29;97309.53;5004296;28;20030;-70
2021/01/21 02:02:51;;;;;;;1.40;1.00;;;;;;;6.34;57.28;97297.03;4995280;28;20037;-69
2021/01/21 02:05:20;;;;;;;2.10;1.13;;;;;;;6.36;56.44;97311.06;4995433;28;20101;-70
2021/01/21 02:07:46;;;;;;;2.15;1.20;;;;;;;6.47;56.13;97281.88;4996174;28;20113;-69
2021/01/21 02:10:14;;;;;;;3.65;1.13;;;;;;;6.80;54.81;97287.06;4992990;28;20124;-70
2021/01/21 02:13:01;;;;;;;2.20;1.00;;;;;;;6.92;54.67;97287.22;4992757;28;20438;-69
2021/01/21 02:16:04;;;;;;;1.95;1.25;;;;;;;6.87;55.30;97284.34;5017069;28;20034;-70
2021/01/21 02:18:56;;;;;;;2.38;1.10;;;;;;;6.77;56.19;97280.25;4992905;28;20034;-69
2021/01/21 02:21:40;;;;;;;2.58;1.15;;;;;;;6.66;55.85;97261.34;5005769;28;20050;-70
2021/01/21 02:24:49;;;;;;;4.10;1.10;;;;;;;6.75;55.88;97247.41;4999418;28;20117;-69
2021/01/21 02:27:17;;;;;;;2.17;1.10;;;;;;;6.79;55.51;97251.31;4994681;28;20046;-70
2021/01/21 02:29:43;;;;;;;1.95;1.00;;;;;;;6.73;55.04;97235.22;4996659;28;20081;-71
2021/01/21 02:32:08;;;;;;;2.25;0.95;;;;;;;6.97;54.58;97247.06;4996561;28;20034;-70
2021/01/21 02:34:46;;;;;;;2.05;1.00;;;;;;;6.97;54.78;97242.50;5005456;28;20033;-70
2021/01/21 02:37:23;;;;;;;2.80;1.10;;;;;;;6.82;55.56;97246.53;5006389;28;20033;-70
2021/01/21 02:39:49;;;;;;;2.80;1.40;;;;;;;6.88;54.74;97257.22;5016656;28;20034;-70
2021/01/21 02:42:16;;;;;;;3.35;1.40;;;;;;;6.70;56.75;97262.53;5002955;28;20033;-70
2021/01/21 02:44:41;;;;;;;2.72;1.38;;;;;;;6.57;57.44;97266.13;5003460;28;20411;-68
2021/01/21 02:47:07;;;;;;;5.35;1.45;;;;;;;6.36;58.09;97257.34;5001157;28;20118;-68
2021/01/21 02:49:33;;;;;;;2.17;1.10;;;;;;;6.23;58.45;97256.59;5003242;28;20065;-70
2021/01/21 02:52:13;;;;;;;2.38;1.00;;;;;;;6.17;58.61;97262.81;5007256;28;20102;-68
2021/01/21 02:54:53;;;;;;;3.92;0.98;;;;;;;6.11;58.09;97254.56;5013340;28;20029;-68
2021/01/21 02:57:39;;;;;;;1.52;1.00;;;;;;;6.13;57.69;97238.22;5005456;28;20187;-67
2021/01/21 03:00:08;;;;;;;2.88;1.20;;;;;;;6.33;57.39;97240.84;4996385;28;20037;-68
2021/01/21 03:02:37;;;;;;;2.22;1.10;;;;;;;6.38;57.42;97221.41;5004375;28;20033;-68
2021/01/21 03:05:03;;;;;;;1.75;0.98;;;;;;;6.31;57.80;97211.53;5006058;28;20725;-68
2021/01/21 03:07:29;;;;;;;2.45;1.05;;;;;;;6.39;57.17;97212.28;5001830;28;20037;-68
2021/01/21 03:09:54;;;;;;;2.60;1.20;;;;;;;6.51;56.88;97199.81;4995654;28;20435;-68
2021/01/21 03:12:27;;;;;;;2.47;1.08;;;;;;;6.91;54.60;97210.28;5005664;28;20080;-70
2021/01/21 03:14:55;;;;;;;2.65;1.10;;;;;;;6.99;54.04;97216.19;5009636;28;20113;-70
2021/01/21 03:17:25;;;;;;;2.15;1.00;;;;;;;7.05;54.30;97201.06;5001187;28;20814;-70
2021/01/21 03:19:52;;;;;;;4.40;1.52;;;;;;;7.04;54.58;97202.09;4995435;28;20042;-70
2021/01/21 03:22:17;;;;;;;2.80;1.27;;;;;;;7.03;54.44;97200.47;5002114;28;20057;-70
2021/01/21 03:24:43;;;;;;;5.30;1.05;;;;;;;7.45;53.08;97217.66;5010430;28;20030;-69
2021/01/21 03:27:09;;;;;;;2.90;1.63;;;;;;;7.41;53.62;97221.00;4995316;28;20117;-69
2021/01/21 03:29:34;;;;;;;2.70;1.48;;;;;;;7.16;54.49;97212.97;5001920;28;20040;-69
2021/01/21 03:32:00;;;;;;;2.80;1.63;;;;;;;7.17;54.83;97226.19;5000611;28;20029;-69
2021/01/21 03:34:25;;;;;;;5.00;1.58;;;;;;;7.04;54.96;97210.16;5002577;28;20102;-69
2021/01/21 03:36:51;;;;;;;2.05;1.10;;;;;;;7.05;55.25;97210.97;4993703;28;20030;-69
2021/01/21 03:39:16;;;;;;;3.63;1.20;;;;;;;6.96;55.08;97210.44;5010657;28;20022;-69
2021/01/21 03:41:42;;;;;;;3.47;1.50;;;;;;;6.93;55.42;97214.38;5013421;28;20037;-69
2021/01/21 03:44:07;;;;;;;3.33;1.30;;;;;;;6.96;55.26;97224.69;5001480;28;20030;-69
2021/01/21 03:46:33;;;;;;;2.60;1.25;;;;;;;6.90;55.42;97224.78;5009730;28;20069;-68
2021/01/21 03:48:58;;;;;;;3.65;1.27;;;;;;;7.02;55.39;97221.16;5015625;28;20041;-69
2021/01/21 03:51:24;;;;;;;2.50;1.40;;;;;;;7.03;55.30;97221.97;5005419;28;20109;-69
2021/01/21 03:53:49;;;;;;;3.05;1.20;;;;;;;7.13;54.33;97216.91;5011225;28;20025;-69
2021/01/21 03:56:15;;;;;;;2.63;0.90;;;;;;;7.32;53.49;97222.34;4999399;28;20038;-69
2021/01/21 03:58:40;;;;;;;2.20;1.30;;;;;;;7.29;53.17;97212.84;4995308;28;20018;-69
2021/01/21 04:01:05;;;;;;;4.05;1.60;;;;;;;7.32;53.81;97225.03;5003576;28;20045;-69
2021/01/21 04:03:32;;;;;;;4.40;1.48;;;;;;;7.41;53.32;97231.75;4999158;28;20369;-69
2021/01/21 04:05:58;;;;;;;3.28;1.58;;;;;;;7.37;53.38;97236.78;5008223;28;20023;-69
2021/01/21 04:08:23;;;;;;;4.82;1.52;;;;;;;7.43;53.55;97221.59;4995218;28;20034;-69
2021/01/21 04:10:49;;;;;;;2.00;1.08;;;;;;;7.39;52.79;97218.53;4999964;28;20530;-69
2021/01/21 04:13:14;;;;;;;2.85;1.30;;;;;;;7.29;54.10;97225.47;5008624;28;20026;-69
2021/01/21 04:15:39;;;;;;;2.55;1.40;;;;;;;7.08;54.01;97203.31;5004301;28;20034;-69
2021/01/21 04:18:05;;;;;;;2.95;1.50;;;;;;;7.20;54.07;97227.59;4996955;28;20050;-69
2021/01/21 04:20:30;;;;;;;4.40;1.77;;;;;;;7.16;54.61;97227.22;5007909;28;20017;-69
2021/01/21 04:22:55;;;;;;;3.45;1.20;;;;;;;7.25;53.65;97231.28;5005019;28;20054;-69
2021/01/21 04:25:21;;;;;;;3.17;1.65;;;;;;;7.24;53.75;97235.03;5001636;28;20389;-69
2021/01/21 04:27:46;;;;;;;2.70;1.50;;;;;;;7.24;53.19;97226.94;4994056;28;20023;-69
2021/01/21 04:30:12;;;;;;;2.17;1.50;;;;;;;7.39;53.09;97237.38;5009402;28;20034;-69
2021/01/21 04:32:37;;;;;;;2.20;1.20;;;;;;;7.44;52.60;97242.06;4997794;28;20072;-69
2021/01/21 04:35:03;;;;;;;4.75;1.25;;;;;;;7.54;52.42;97242.38;5001270;28;20128;-69
2021/01/21 04:37:28;;;;;;;2.75;1.00;;;;;;;7.65;52.37;97233.59;5006717;28;20101;-69
2021/01/21 04:39:53;;;;;;;3.47;1.30;;;;;;;7.69;52.36;97234.78;5007158;28;20032;-68
2021/01/21 04:42:19;;;;;;;2.95;1.05;;;;;;;7.67;52.98;97230.66;5004292;28;20480;-69
2021/01/21 04:44:44;;;;;;;3.17;1.73;;;;;;;7.54;52.81;97211.97;4993933;28;20102;-69
2021/01/21 04:47:11;;;;;;;3.90;1.55;;;;;;;7.46;53.34;97230.03;4993627;28;20040;-69
2021/01/21 04:49:40;;;;;;;1.80;1.20;;;;;;;7.51;53.30;97225.88;5003629;28;20017;-69
2021/01/21 04:52:08;;;;;;;2.45;1.00;;;;;;;7.47;53.08;97228.19;4998288;28;20030;-69
2021/01/21 04:54:42;;;;;;;3.55;0.98;;;;;;;7.46;53.05;97231.91;5011114;28;20558;-69
2021/01/21 04:57:13;;;;;;;3.47;1.00;;;;;;;7.39;53.57;97225.81;5004280;28;20038;-67
2021/01/21 04:59:40;;;;;;;2.33;1.00;;;;;;;7.33;53.13;97221.28;4995142;28;20034;-73
2021/01/21 05:02:06;;;;;;;2.33;1.13;;;;;;;7.39;53.42;97217.72;5009026;28;20068;-71
2021/01/21 05:04:32;;;;;;;3.05;1.30;;;;;;;7.35;53.12;97217.34;5010736;28;20026;-77
2021/01/21 05:06:59;;;;;;;3.80;1.92;;;;;;;7.41;53.43;97223.69;5001149;28;20558;-73
2021/01/21 05:09:24;;;;;;;5.55;1.75;;;;;;;7.42;53.26;97230.72;4995173;28;20034;-76
2021/01/21 05:11:50;;;;;;;8.85;2.00;;;;;;;7.48;52.97;97219.06;4994235;28;20029;-73
2021/01/21 05:14:16;;;;;;;3.45;1.20;;;;;;;7.58;52.84;97229.34;5016681;28;20026;-77
2021/01/21 05:16:43;;;;;;;2.40;1.00;;;;;;;7.69;52.28;97212.44;5012759;28;20108;-75
2021/01/21 05:19:12;;;;;;;2.53;1.10;;;;;;;7.74;52.15;97226.03;5014433;28;20104;-75
2021/01/21 05:21:41;;;;;;;2.83;1.00;;;;;;;7.65;51.42;97216.59;5009874;28;20590;-76
2021/01/21 05:24:11;;;;;;;2.78;1.10;;;;;;;7.79;51.92;97220.00;4996987;28;20103;-77
2021/01/21 05:26:41;;;;;;;2.75;0.95;;;;;;;7.74;51.43;97199.13;5006181;28;20052;-77
2021/01/21 05:29:07;;;;;;;4.03;1.05;;;;;;;7.92;51.75;97221.72;5012808;28;20030;-72
2021/01/21 05:31:33;;;;;;;1.95;0.80;;;;;;;8.02;51.06;97211.25;5003481;28;20049;-68
2021/01/21 05:34:00;;;;;;;1.92;1.10;;;;;;;8.10;51.07;97221.69;5009533;28;20121;-76
2021/01/21 05:36:25;;;;;;;2.88;1.10;;;;;;;7.95;51.16;97202.41;5009845;28;20101;-75
2021/01/21 05:38:57;;;;;;;3.78;0.93;;;;;;;8.04;50.85;97201.88;4996003;28;20141;-79
2021/01/21 05:41:24;;;;;;;1.65;0.75;;;;;;;8.11;50.91;97221.44;5008884;28;20109;-77
2021/01/21 05:43:49;;;;;;;3.47;1.10;;;;;;;8.01;51.13;97205.00;5012397;28;20017;-80
2021/01/21 05:46:18;;;;;;;4.97;0.90;;;;;;;8.23;50.35;97213.44;5009985;28;20029;-76
2021/01/21 05:48:43;;;;;;;1.60;0.73;;;;;;;8.27;50.22;97208.41;5012395;28;20022;-76
2021/01/21 05:51:09;;;;;;;4.65;0.77;;;;;;;8.41;49.54;97212.63;5008283;28;20032;-75
2021/01/21 05:53:35;;;;;;;1.85;0.80;;;;;;;8.40;49.67;97200.19;4991604;28;20023;-73
2021/01/21 05:56:01;;;;;;;1.40;0.70;;;;;;;8.37;49.38;97192.53;5014867;28;20105;-77
2021/01/21 05:58:26;;;;;;;5.03;0.80;;;;;;;8.54;49.50;97227.75;5010884;28;20061;-75
2021/01/21 06:00:53;;;;;;;2.17;1.00;;;;;;;8.49;49.46;97211.47;4998477;28;20061;-75
2021/01/21 06:03:19;;;;;;;1.70;0.75;;;;;;;8.59;49.99;97227.91;5010438;28;20029;-71
2021/01/21 06:05:49;;;;;;;1.73;0.65;;;;;;;8.44;50.06;97209.47;5009747;28;20148;-79
2021/01/21 06:08:19;;;;;;;1.40;0.68;;;;;;;8.53;49.76;97216.16;5007887;28;20026;-74
2021/01/21 06:10:44;;;;;;;2.40;0.88;;;;;;;8.63;49.59;97209.41;5012129;28;20133;-73
2021/01/21 06:13:14;;;;;;;1.88;0.60;;;;;;;8.48;49.99;97194.47;5011688;28;20076;-75
2021/01/21 06:15:39;;;;;;;;;;;;;;;8.73;49.31;97217.75;5006952;28;20484;-73
2021/01/21 06:18:05;;;;;;;1.05;0.70;;;;;;;8.81;48.83;97198.53;4992382;28;19916;-73
2021/01/21 06:20:30;;;;;;;4.88;0.75;;;;;;;8.77;48.79;97176.59;4992456;28;20018;-74
2021/01/21 06:22:59;;;;;;;3.50;0.75;;;;;;;8.94;48.66;97203.72;4991395;28;20030;-72
2021/01/21 06:25:25;;;;;;;2.13;0.63;;;;;;;8.96;48.68;97180.06;4994291;28;20030;-74
2021/01/21 06:27:51;;;;;;;4.35;0.80;;;;;;;8.94;48.44;97176.75;5012165;28;20480;-73
2021/01/21 06:30:19;;;;;;;3.72;0.70;;;;;;;9.14;47.97;97192.63;5012135;28;20444;-75
2021/01/21 06:33:01;;;;;;;3.75;0.80;;;;;;;9.19;48.13;97202.69;5010667;28;20109;-72
2021/01/21 06:35:57;;;;;;;3.08;0.75;;;;;;;9.16;48.15;97205.84;5006642;28;20112;-72
2021/01/21 06:38:24;;;;;;;3.63;0.63;;;;;;;9.12;48.14;97223.59;5004965;28;20088;-68
2021/01/21 06:40:52;;;;;;;2.30;0.50;;;;;;;9.02;48.47;97218.75;5007686;28;20038;-73
2021/01/21 06:43:23;;;;;;;2.92;0.60;;;;;;;8.97;48.83;97216.75;4993918;28;20022;-70
2021/01/21 06:45:50;;;;;;;4.70;0.73;;;;;;;8.94;49.07;97201.03;5010192;28;20065;-75
2021/01/21 06:48:15;;;;;;;6.63;0.63;;;;;;;8.98;49.24;97215.69;5011638;28;20124;-78
2021/01/21 06:50:42;;;;;;;4.07;0.90;;;;;;;8.96;49.11;97196.22;5002757;28;20114;-78
2021/01/21 06:53:10;;;;;;;5.13;1.13;;;;;;;9.06;48.86;97211.81;5010260;28;20026;-75
2021/01/21 06:55:38;;;;;;;2.67;0.77;;;;;;;8.99;48.66;97190.38;5000347;28;20026;-77
2021/01/21 06:58:03;;;;;;;1.48;0.80;;;;;;;9.07;48.90;97189.22;5011503;28;20472;-73
2021/01/21 07:00:40;;;;;;;1.90;1.02;;;;;;;9.15;48.74;97207.75;5017958;28;20029;-77
2021/01/21 07:03:06;;;;;;;1.75;0.70;;;;;;;9.18;48.63;97203.75;4992222;28;20034;-75
2021/01/21 07:05:32;;;;;;;1.40;0.80;;;;;;;9.27;48.67;97213.13;5004799;28;20113;-75
2021/01/21 07:08:03;;;;;;;3.40;0.80;;;;;;;9.23;48.30;97200.38;5001644;28;20164;-77
2021/01/21 07:10:44;;;;;;;5.28;0.70;;;;;;;9.35;48.70;97215.50;5010221;28;20022;-74
2021/01/21 07:13:19;;;;;;;1.40;0.70;;;;;;;9.38;48.78;97214.22;5008593;28;20112;-76
2021/01/21 07:15:46;;;;;;;0.60;0.50;;;;;;;9.38;48.48;97220.44;5013333;28;20115;-71
2021/01/21 07:18:18;;;;;;;3.08;0.50;;;;;;;9.42;48.88;97218.88;5010507;28;20017;-69
2021/01/21 07:21:22;;;;;;;6.68;0.73;;;;;;;9.52;48.86;97212.91;5010684;28;20075;-75
2021/01/21 07:23:50;;;;;;;4.32;0.57;;;;;;;9.57;48.58;97233.81;4996885;28;20060;-73
2021/01/21 07:26:20;;;;;;;1.73;0.60;;;;;;;9.53;49.20;97201.03;5000696;28;20037;-76
2021/01/21 07:29:01;;;;;;;2.72;0.65;;;;;;;9.57;49.41;97217.59;5009381;28;20036;-82
2021/01/21 07:31:26;;;;;;;3.80;0.52;;;;;;;9.51;49.81;97194.22;5021121;28;20025;-74
2021/01/21 07:34:22;;;;;;;4.38;0.70;;;;;;;9.72;50.19;97230.59;5022392;28;20026;-76
2021/01/21 07:37:09;;;;;;;2.15;0.50;;;;;;;9.79;50.57;97213.22;4998252;28;20099;-73
2021/01/21 07:39:51;;;;;;;1.58;0.50;;;;;;;9.89;50.68;97220.72;5010696;28;20028;-76
2021/01/21 07:42:17;;;;;;;1.25;0.60;;;;;;;9.92;50.77;97214.84;5005230;28;20056;-74
2021/01/21 07:45:04;;;;;;;2.47;0.73;;;;;;;9.91;51.71;97201.59;4996792;28;20076;-74
2021/01/21 07:47:34;;;;;;;2.15;0.55;;;;;;;9.84;52.44;97202.53;4993419;28;20121;-73
2021/01/21 07:50:18;;;;;;;2.05;0.63;;;;;;;9.98;52.73;97230.13;5004328;28;20036;-69
2021/01/21 07:52:49;;;;;;;2.28;0.70;;;;;;;9.96;53.75;97234.13;5001348;28;20052;-66
2021/01/21 07:55:14;;;;;;;0.60;0.40;;;;;;;9.84;54.59;97226.03;4999005;28;20304;-66
2021/01/21 07:57:41;;;;;;;1.90;0.50;;;;;;;10.00;54.53;97243.38;5030069;28;20379;-66
2021/01/21 08:00:08;;;;;;;3.17;0.70;;;;;;;10.03;55.22;97232.94;5013353;28;21084;-67
2021/01/21 08:03:06;;;;;;;1.80;0.52;;;;;;;10.07;55.52;97234.09;5000327;28;20038;-67
2021/01/21 08:05:31;;;;;;;1.40;0.60;;;;;;;9.93;55.76;97215.66;4992234;28;20113;-67
2021/01/21 08:07:57;;;;;;;0.73;0.45;;;;;;;10.06;55.78;97267.56;5002310;28;20113;-68
2021/01/21 08:10:24;;;;;;;2.97;0.60;;;;;;;10.04;56.06;97223.75;5004867;28;20045;-67
2021/01/21 08:13:00;;;;;;;5.22;0.60;;;;;;;10.04;56.36;97225.66;5004543;28;20029;-66
2021/01/21 08:15:28;;;;;;;2.90;0.40;;;;;;;9.98;56.67;97223.88;5007608;28;20029;-74
2021/01/21 08:17:54;;;;;;;3.30;0.70;;;;;;;9.98;57.20;97245.50;5012385;28;20030;-77
2021/01/21 08:20:22;;;;;;;1.55;0.65;;;;;;;10.02;56.98;97246.66;5012640;28;20372;-75
2021/01/21 08:22:54;;;;;;;1.13;0.60;;;;;;;9.95;57.34;97235.16;5010774;28;20056;-76
2021/01/21 08:25:41;;;;;;;2.38;0.52;;;;;;;10.00;57.74;97224.47;5000078;28;20026;-71
2021/01/21 08:28:07;;;;;;;2.03;0.70;;;;;;;10.08;57.53;97229.50;4992673;28;20026;-70
2021/01/21 08:30:33;;;;;;;2.08;0.80;;;;;;;10.42;56.52;97221.53;5000976;28;20026;-69
2021/01/21 08:33:20;;;;;;;5.82;0.80;;;;;;;10.37;57.02;97227.66;5008672;28;20073;-68
2021/01/21 08:36:04;;;;;;;1.95;0.50;;;;;;;10.26;57.13;97226.63;5008174;28;20121;-74
2021/01/21 08:38:35;;;;;;;7.85;0.95;;;;;;;10.34;57.01;97243.56;5010386;28;20034;-71
2021/01/21 08:41:03;;;;;;;2.97;1.17;;;;;;;10.27;57.51;97232.84;5007900;28;20455;-74
2021/01/21 08:43:29;;;;;;;4.18;0.68;;;;;;;10.30;57.33;97252.16;5009436;28;20025;-73
2021/01/21 08:45:55;;;;;;;1.17;0.43;;;;;;;10.21;57.63;97231.09;5010645;28;20028;-73
2021/01/21 08:48:31;;;;;;;4.35;0.80;;;;;;;10.40;56.98;97256.94;5013112;28;20030;-74
2021/01/21 08:50:57;;;;;;;1.92;0.75;;;;;;;10.36;57.34;97253.06;5002036;28;20361;-73
2021/01/21 08:53:24;;;;;;;2.15;0.98;;;;;;;10.36;57.80;97246.84;4992446;28;20077;-73
2021/01/21 08:55:51;;;;;;;2.67;0.98;;;;;;;10.35;57.29;97237.94;4997539;28;20338;-74
2021/01/21 08:58:18;;;;;;;1.85;0.90;;;;;;;10.41;57.58;97249.66;5011610;28;20025;-76
2021/01/21 09:01:01;;;;;;;2.92;1.00;;;;;;;10.43;57.85;97242.13;5007742;28;20121;-71
2021/01/21 09:03:38;;;;;;;3.38;0.80;;;;;;;10.57;57.36;97248.06;5008142;28;20026;-69
2021/01/21 09:06:10;;;;;;;2.33;1.08;;;;;;;10.70;57.42;97229.66;5010387;28;20029;-69
2021/01/21 09:08:54;;;;;;;5.53;0.93;;;;;;;10.78;56.78;97241.16;5012848;28;20395;-75
2021/01/21 09:11:38;;;;;;;2.83;0.95;;;;;;;10.84;56.95;97216.63;4998107;28;20042;-67
2021/01/21 09:14:04;;;;;;;4.88;1.20;;;;;;;11.00;56.63;97212.31;4992111;28;20029;-73
2021/01/21 09:16:41;;;;;;;2.72;0.88;;;;;;;11.16;56.62;97221.50;5000997;28;20028;-73
2021/01/21 09:19:06;;;;;;;3.63;0.80;;;;;;;11.31;55.90;97215.50;5005231;28;20021;-71
2021/01/21 09:21:32;;;;;;;1.25;0.55;;;;;;;11.18;56.21;97209.34;5006762;28;20048;-75
2021/01/21 09:24:09;;;;;;;3.00;0.40;;;;;;;11.29;56.47;97217.63;4992874;28;20105;-71
2021/01/21 09:26:34;;;;;;;1.77;0.60;;;;;;;11.39;56.42;97215.91;5024368;23;20491;-76
2021/01/21 09:29:00;;;;;;;0.82;0.55;;;;;;;11.15;56.75;97226.09;5006609;28;20109;-75
2021/01/21 09:31:30;;;;;;;4.13;0.65;;;;;;;10.89;57.29;97222.13;5000930;28;20026;-72
2021/01/21 09:33:56;;;;;;;2.45;0.55;;;;;;;10.89;57.62;97224.03;4994422;28;20089;-77
2021/01/21 09:36:29;;;;;;;1.70;0.50;;;;;;;10.85;57.89;97228.31;4994595;28;20026;-69
2021/01/21 09:38:56;;;;;;;1.17;0.57;;;;;;;10.69;58.38;97219.09;5002315;28;20034;-71
2021/01/21 09:41:22;;;;;;;1.92;0.50;;;;;;;10.57;58.09;97192.09;4998835;28;20027;-69
2021/01/21 09:43:48;;;;;;;0.88;0.25;;;;;;;10.61;58.51;97222.16;5001950;28;20044;-68
2021/01/21 09:46:13;;;;;;;1.30;0.35;;;;;;;11.00;57.30;97203.38;5015509;28;20026;-71
2021/01/21 09:48:38;;;;;;;1.50;0.70;;;;;;;13.64;51.50;97203.19;5006130;28;20029;-70
2021/01/21 09:51:04;;;;;;;0.73;0.40;;;;;;;15.07;48.06;97212.69;5007703;28;20407;-67
2021/01/21 09:53:29;;;;;;;2.85;0.60;;;;;;;16.07;45.86;97210.44;4996570;28;20053;-67
2021/01/21 09:55:57;;;;;;;2.05;0.50;;;;;;;16.23;44.96;97220.19;4995431;28;20525;-71
2021/01/21 09:58:23;;;;;;;6.15;0.60;;;;;;;15.71;46.52;97213.25;4995540;28;20021;-72
2021/01/21 10:00:49;;;;;;;1.73;0.65;;;;;;;17.14;43.57;97220.00;5006075;28;20041;-74
2021/01/21 10:03:14;;;;;;;1.67;0.82;;;;;;;18.04;41.91;97224.13;4995069;28;20022;-71
2021/01/21 10:05:39;;;;;;;2.15;0.50;;;;;;;18.74;40.85;97215.34;5002308;28;20073;-75
2021/01/21 10:08:05;;;;;;;1.17;0.68;;;;;;;18.17;41.65;97221.50;5009970;28;20030;-74
2021/01/21 10:10:30;;;;;;;1.55;0.43;;;;;;;15.71;46.23;97207.78;5017206;28;20476;-68
2021/01/21 10:12:55;;;;;;;0.93;0.60;;;;;;;14.33;49.88;97222.03;5007546;28;20030;-71
2021/01/21 10:15:21;;;;;;;0.52;0.40;;;;;;;13.61;52.11;97223.56;4995925;28;20026;-72
2021/01/21 10:17:46;;;;;;;1.27;0.50;;;;;;;13.18;53.21;97225.38;5003761;28;20021;-72
2021/01/21 10:20:12;;;;;;;0.35;0.20;;;;;;;14.11;51.70;97226.81;4992312;28;20141;-68
2021/01/21 10:22:37;;;;;;;0.80;0.28;;;;;;;13.90;51.78;97218.56;5005157;28;20076;-69
2021/01/21 10:25:03;;;;;;;0.40;0.30;;;;;;;13.66;52.58;97226.31;5010739;28;20088;-68
2021/01/21 10:27:28;;;;;;;0.75;0.30;;;;;;;13.81;52.47;97220.16;5011481;28;20181;-68
2021/01/21 10:29:54;;;;;;;1.15;0.20;;;;;;;13.86;51.95;97254.69;5011564;28;20177;-68
2021/01/21 10:32:19;;;;;;;2.17;0.30;;;;;;;13.58;52.82;97237.66;5001893;28;20030;-68
2021/01/21 10:34:44;;;;;;;0.73;0.32;;;;;;;13.31;53.41;97233.13;5005978;28;20023;-68
2021/01/21 10:37:10;;;;;;;2.45;0.35;;;;;;;12.96;54.63;97230.06;4991705;28;20468;-69
2021/01/21 10:39:35;;;;;;;1.48;0.43;;;;;;;12.99;54.27;97229.53;5005030;28;20106;-69
2021/01/21 10:42:00;;;;;;;0.35;0.20;;;;;;;13.15;54.45;97229.44;5003831;28;20034;-68
2021/01/21 10:44:25;;;;;;;0.30;0.20;;;;;;;13.01;54.81;97233.63;4998293;28;20094;-68
2021/01/21 10:46:51;;;;;;;0.55;0.40;;;;;;;13.03;55.01;97233.41;5001895;28;20034;-68
2021/01/21 10:49:16;;;;;;;1.90;0.43;;;;;;;12.84;55.70;97225.63;4996476;28;20117;-68
2021/01/21 10:51:41;;;;;;;0.22;0.20;;;;;;;12.87;56.53;97249.53;5011734;28;20095;-68
2021/01/21 10:54:07;;;;;;;0.40;0.25;;;;;;;12.75;56.14;97238.00;5010538;28;20029;-69
2021/01/21 10:56:33;;;;;;;1.10;0.30;;;;;;;12.57;57.77;97239.16;4996118;28;20105;-68
2021/01/21 10:58:59;;;;;;;0.40;0.30;;;;;;;12.18;60.16;97238.44;5013396;28;20025;-68
2021/01/21 11:01:24;;;;;;;0.47;0.20;;;;;;;11.98;61.14;97233.59;5005036;28;20400;-68
2021/01/21 11:03:49;;;;;;;0.98;0.22;;;;;;;11.88;61.18;97219.91;5011190;28;20113;-73
2021/01/21 11:06:15;;;;;;;1.05;0.30;;;;;;;12.06;60.92;97230.44;5005754;28;20037;-68
2021/01/21 11:08:40;;;;;;;0.95;0.40;;;;;;;12.15;59.96;97233.50;5005136;28;20033;-73
2021/01/21 11:11:05;;;;;;;0.80;0.47;;;;;;;12.17;59.72;97223.25;5014642;28;20029;-74
2021/01/21 11:13:32;;;;;;;1.67;0.82;;;;;;;12.17;59.76;97223.25;5011089;28;20029;-74
2021/01/21 11:15:58;;;;;;;1.67;0.50;;;;;;;12.17;59.08;97236.81;5007993;28;20038;-68
2021/01/21 11:18:23;;;;;;;1.10;0.50;;;;;;;12.38;58.29;97237.88;4994385;28;20029;-68
2021/01/21 11:20:48;;;;;;;0.80;0.32;;;;;;;12.43;58.81;97227.91;5011711;28;20058;-68
2021/01/21 11:23:14;;;;;;;1.83;0.20;;;;;;;12.38;59.00;97244.09;5013344;28;20544;-67
2021/01/21 11:25:39;;;;;;;2.55;0.20;;;;;;;12.33;58.76;97207.97;5007928;28;20424;-71
2021/01/21 11:28:05;;;;;;;2.20;0.20;;;;;;;12.37;59.05;97238.94;5014308;28;20034;-73
2021/01/21 11:30:30;;;;;;;0.30;0.22;;;;;;;12.33;58.96;97233.19;5011235;28;20026;-72
2021/01/21 11:32:56;;;;;;;1.13;0.30;;;;;;;12.39;58.99;97234.06;5006451;28;20574;-72
2021/01/21 11:35:21;;;;;;;0.90;0.40;;;;;;;12.48;59.16;97230.66;5014085;28;20118;-73
2021/01/21 11:37:46;;;;;;;4.07;0.32;;;;;;;12.55;58.98;97224.22;5009718;28;20369;-70
2021/01/21 11:40:12;;;;;;;1.20;0.38;;;;;;;12.42;58.95;97204.56;5014697;28;20061;-76
2021/01/21 11:42:37;;;;;;;0.75;0.20;;;;;;;12.52;59.46;97225.53;5021249;28;20453;-75
2021/01/21 11:45:05;;;;;;;0.40;0.20;;;;;;;12.18;59.82;97238.44;5004575;28;20096;-74